sensor_id;sensor_type;location;lat;lon;timestamp;temperature;humidity
6903;DHT22;20232;49.408;8.702;2022-07-15T04:00:40;15.60;92.40
6903;DHT22;20232;49.408;8.702;2022-07-15T04:03:06;15.60;92.50
6903;DHT22;20232;49.408;8.702;2022-07-15T04:05:32;15.50;92.40
6903;DHT22;20232;49.408;8.702;2022-07-15T04:07:57;15.50;92.60
6903;DHT22;20232;49.408;8.702;2022-07-15T04:10:26;15.40;92.70
6903;DHT22;20232;49.408;8.702;2022-07-15T04:12:52;15.40;92.30
6903;DHT22;20232;49.408;8.702;2022-07-15T04:15:17;15.50;92.20
6903;DHT22;20232;49.408;8.702;2022-07-15T04:17:43;15.50;91.90
6903;DHT22;20232;49.408;8.702;2022-07-15T04:20:09;15.70;91.60
6903;DHT22;20232;49.408;8.702;2022-07-15T04:22:44;15.80;90.90
6903;DHT22;20232;49.408;8.702;2022-07-15T04:25:15;15.90;90.40
6903;DHT22;20232;49.408;8.702;2022-07-15T04:27:41;15.90;90.10
6903;DHT22;20232;49.408;8.702;2022-07-15T04:30:08;16.00;90.20
6903;DHT22;20232;49.408;8.702;2022-07-15T04:32:34;16.00;89.80
6903;DHT22;20232;49.408;8.702;2022-07-15T04:35:00;16.00;89.40
6903;DHT22;20232;49.408;8.702;2022-07-15T04:37:27;16.10;88.90
6903;DHT22;20232;49.408;8.702;2022-07-15T04:39:53;16.00;88.40
6903;DHT22;20232;49.408;8.702;2022-07-15T04:42:20;16.00;89.50
6903;DHT22;20232;49.408;8.702;2022-07-15T04:44:46;16.00;87.90
6903;DHT22;20232;49.408;8.702;2022-07-15T04:47:12;16.00;87.50
6903;DHT22;20232;49.408;8.702;2022-07-15T04:49:38;16.00;87.70
6903;DHT22;20232;49.408;8.702;2022-07-15T04:52:22;16.10;87.60
6903;DHT22;20232;49.408;8.702;2022-07-15T04:54:48;16.20;87.40
6903;DHT22;20232;49.408;8.702;2022-07-15T04:57:13;16.20;87.60
6903;DHT22;20232;49.408;8.702;2022-07-15T04:59:39;16.20;88.30
6903;DHT22;20232;49.408;8.702;2022-07-15T05:02:05;16.30;89.10
6903;DHT22;20232;49.408;8.702;2022-07-15T05:04:30;16.30;89.70
6903;DHT22;20232;49.408;8.702;2022-07-15T05:06:56;16.30;90.20
6903;DHT22;20232;49.408;8.702;2022-07-15T05:09:22;16.40;90.20
6903;DHT22;20232;49.408;8.702;2022-07-15T05:11:47;16.50;90.00
6903;DHT22;20232;49.408;8.702;2022-07-15T05:14:13;16.70;89.50
6903;DHT22;20232;49.408;8.702;2022-07-15T05:16:39;16.80;89.90
6903;DHT22;20232;49.408;8.702;2022-07-15T05:19:04;16.80;90.10
6903;DHT22;20232;49.408;8.702;2022-07-15T05:21:30;16.80;90.20
6903;DHT22;20232;49.408;8.702;2022-07-15T05:23:56;16.80;90.70
6903;DHT22;20232;49.408;8.702;2022-07-15T05:26:21;16.80;91.00
6903;DHT22;20232;49.408;8.702;2022-07-15T05:28:47;16.70;90.90
6903;DHT22;20232;49.408;8.702;2022-07-15T05:31:12;16.70;90.70
6903;DHT22;20232;49.408;8.702;2022-07-15T05:33:38;16.70;91.20
6903;DHT22;20232;49.408;8.702;2022-07-15T05:36:04;16.90;91.20
6903;DHT22;20232;49.408;8.702;2022-07-15T05:38:30;17.00;90.90
6903;DHT22;20232;49.408;8.702;2022-07-15T05:40:56;17.20;90.80
6903;DHT22;20232;49.408;8.702;2022-07-15T05:43:21;17.20;90.50
6903;DHT22;20232;49.408;8.702;2022-07-15T05:45:47;17.40;90.20
6903;DHT22;20232;49.408;8.702;2022-07-15T05:48:13;17.30;89.90
6903;DHT22;20232;49.408;8.702;2022-07-15T05:50:39;17.30;89.40
6903;DHT22;20232;49.408;8.702;2022-07-15T05:53:04;17.30;90.00
6903;DHT22;20232;49.408;8.702;2022-07-15T05:55:30;17.40;86.90
6903;DHT22;20232;49.408;8.702;2022-07-15T05:57:56;17.40;86.70
6903;DHT22;20232;49.408;8.702;2022-07-15T06:00:21;17.50;86.40
6903;DHT22;20232;49.408;8.702;2022-07-15T06:02:47;17.50;86.40
6903;DHT22;20232;49.408;8.702;2022-07-15T06:05:13;17.50;85.30
6903;DHT22;20232;49.408;8.702;2022-07-15T06:07:38;17.50;85.30
6903;DHT22;20232;49.408;8.702;2022-07-15T06:10:05;17.50;84.60
6903;DHT22;20232;49.408;8.702;2022-07-15T06:12:30;17.60;84.70
6903;DHT22;20232;49.408;8.702;2022-07-15T06:14:56;17.60;83.30
6903;DHT22;20232;49.408;8.702;2022-07-15T06:17:22;17.70;83.20
6903;DHT22;20232;49.408;8.702;2022-07-15T06:19:47;17.80;83.30
6903;DHT22;20232;49.408;8.702;2022-07-15T06:22:13;17.80;82.50
6903;DHT22;20232;49.408;8.702;2022-07-15T06:24:39;17.90;81.60
6903;DHT22;20232;49.408;8.702;2022-07-15T06:27:04;18.00;82.80
6903;DHT22;20232;49.408;8.702;2022-07-15T06:29:30;18.10;82.00
6903;DHT22;20232;49.408;8.702;2022-07-15T06:31:57;18.20;81.30
6903;DHT22;20232;49.408;8.702;2022-07-15T06:34:23;18.30;82.40
6903;DHT22;20232;49.408;8.702;2022-07-15T06:36:49;18.40;82.40
6903;DHT22;20232;49.408;8.702;2022-07-15T06:39:15;18.60;81.80
6903;DHT22;20232;49.408;8.702;2022-07-15T06:41:42;19.00;81.00
6903;DHT22;20232;49.408;8.702;2022-07-15T06:44:07;19.30;79.90
6903;DHT22;20232;49.408;8.702;2022-07-15T06:46:33;19.50;79.90
6903;DHT22;20232;49.408;8.702;2022-07-15T06:48:59;19.70;77.80
6903;DHT22;20232;49.408;8.702;2022-07-15T06:51:25;19.70;77.80
6903;DHT22;20232;49.408;8.702;2022-07-15T06:53:50;19.70;76.90
6903;DHT22;20232;49.408;8.702;2022-07-15T06:56:16;19.70;77.40
6903;DHT22;20232;49.408;8.702;2022-07-15T06:58:42;19.70;76.60
6903;DHT22;20232;49.408;8.702;2022-07-15T07:01:08;19.80;76.20
6903;DHT22;20232;49.408;8.702;2022-07-15T07:03:33;20.00;75.80
6903;DHT22;20232;49.408;8.702;2022-07-15T07:06:00;20.30;75.80
6903;DHT22;20232;49.408;8.702;2022-07-15T07:08:25;20.60;75.70
6903;DHT22;20232;49.408;8.702;2022-07-15T07:10:51;20.80;73.80
6903;DHT22;20232;49.408;8.702;2022-07-15T07:13:16;20.80;73.80
6903;DHT22;20232;49.408;8.702;2022-07-15T07:15:42;20.60;74.00
6903;DHT22;20232;49.408;8.702;2022-07-15T07:18:08;20.50;73.90
6903;DHT22;20232;49.408;8.702;2022-07-15T07:20:33;20.50;74.60
6903;DHT22;20232;49.408;8.702;2022-07-15T07:23:01;20.50;73.20
6903;DHT22;20232;49.408;8.702;2022-07-15T07:25:26;20.80;73.00
6903;DHT22;20232;49.408;8.702;2022-07-15T07:27:52;21.10;72.00
6903;DHT22;20232;49.408;8.702;2022-07-15T07:30:17;21.20;71.60
6903;DHT22;20232;49.408;8.702;2022-07-15T07:32:43;21.30;71.60
6903;DHT22;20232;49.408;8.702;2022-07-15T07:35:09;21.50;71.40
6903;DHT22;20232;49.408;8.702;2022-07-15T07:37:35;21.80;70.80
6903;DHT22;20232;49.408;8.702;2022-07-15T07:40:04;21.70;70.00
6903;DHT22;20232;49.408;8.702;2022-07-15T07:42:30;21.90;70.70
6903;DHT22;20232;49.408;8.702;2022-07-15T07:44:55;22.40;70.20
6903;DHT22;20232;49.408;8.702;2022-07-15T07:47:21;22.80;68.40
6903;DHT22;20232;49.408;8.702;2022-07-15T07:49:47;23.10;67.10
6903;DHT22;20232;49.408;8.702;2022-07-15T07:52:13;23.30;67.40
6903;DHT22;20232;49.408;8.702;2022-07-15T07:54:40;23.80;64.30
6903;DHT22;20232;49.408;8.702;2022-07-15T07:57:07;23.80;64.50
6903;DHT22;20232;49.408;8.702;2022-07-15T07:59:32;23.70;65.00
6903;DHT22;20232;49.408;8.702;2022-07-15T08:01:58;23.50;64.50
6903;DHT22;20232;49.408;8.702;2022-07-15T08:04:24;23.50;64.90
6903;DHT22;20232;49.408;8.702;2022-07-15T08:06:50;23.80;63.80
6903;DHT22;20232;49.408;8.702;2022-07-15T08:09:16;23.70;63.90
6903;DHT22;20232;49.408;8.702;2022-07-15T08:11:42;23.90;62.90
6903;DHT22;20232;49.408;8.702;2022-07-15T08:14:08;24.30;62.40
6903;DHT22;20232;49.408;8.702;2022-07-15T08:16:34;24.60;60.90
6903;DHT22;20232;49.408;8.702;2022-07-15T08:19:00;24.50;61.40
6903;DHT22;20232;49.408;8.702;2022-07-15T08:21:25;24.50;60.90
6903;DHT22;20232;49.408;8.702;2022-07-15T08:23:51;24.80;60.60
6903;DHT22;20232;49.408;8.702;2022-07-15T08:26:16;25.00;59.60
6903;DHT22;20232;49.408;8.702;2022-07-15T08:28:49;25.20;59.70
6903;DHT22;20232;49.408;8.702;2022-07-15T08:31:15;25.60;58.40
6903;DHT22;20232;49.408;8.702;2022-07-15T08:33:42;25.70;57.80
6903;DHT22;20232;49.408;8.702;2022-07-15T08:36:07;26.00;56.90
6903;DHT22;20232;49.408;8.702;2022-07-15T08:38:33;25.80;56.70
6903;DHT22;20232;49.408;8.702;2022-07-15T08:40:59;25.60;56.80
6903;DHT22;20232;49.408;8.702;2022-07-15T08:43:24;25.60;57.40
6903;DHT22;20232;49.408;8.702;2022-07-15T08:45:50;25.70;57.20
6903;DHT22;20232;49.408;8.702;2022-07-15T08:48:17;25.40;57.30
6903;DHT22;20232;49.408;8.702;2022-07-15T08:50:45;25.60;57.30
6903;DHT22;20232;49.408;8.702;2022-07-15T08:53:10;25.90;56.40
6903;DHT22;20232;49.408;8.702;2022-07-15T08:55:37;26.10;56.30
6903;DHT22;20232;49.408;8.702;2022-07-15T08:58:02;26.20;55.80
6903;DHT22;20232;49.408;8.702;2022-07-15T09:00:28;26.20;55.50
6903;DHT22;20232;49.408;8.702;2022-07-15T09:03:03;26.50;54.70
6903;DHT22;20232;49.408;8.702;2022-07-15T09:05:30;26.00;55.30
6903;DHT22;20232;49.408;8.702;2022-07-15T09:08:06;25.70;55.90
6903;DHT22;20232;49.408;8.702;2022-07-15T09:13:38;26.10;55.40
6903;DHT22;20232;49.408;8.702;2022-07-15T09:16:08;26.40;54.80
6903;DHT22;20232;49.408;8.702;2022-07-15T09:18:36;26.80;53.80
6903;DHT22;20232;49.408;8.702;2022-07-15T09:21:13;26.90;53.10
6903;DHT22;20232;49.408;8.702;2022-07-15T09:23:39;27.00;52.90
6903;DHT22;20232;49.408;8.702;2022-07-15T09:26:34;27.30;52.50
6903;DHT22;20232;49.408;8.702;2022-07-15T09:29:03;27.60;51.70
6903;DHT22;20232;49.408;8.702;2022-07-15T09:31:55;27.80;52.60
6903;DHT22;20232;49.408;8.702;2022-07-15T09:35:00;28.10;51.10
6903;DHT22;20232;49.408;8.702;2022-07-15T09:37:26;28.00;51.10
6903;DHT22;20232;49.408;8.702;2022-07-15T09:39:57;28.10;50.90
6903;DHT22;20232;49.408;8.702;2022-07-15T09:42:23;27.90;51.90
6903;DHT22;20232;49.408;8.702;2022-07-15T09:44:49;28.20;51.40
6903;DHT22;20232;49.408;8.702;2022-07-15T09:47:20;28.60;51.20
6903;DHT22;20232;49.408;8.702;2022-07-15T09:49:48;28.60;50.80
6903;DHT22;20232;49.408;8.702;2022-07-15T09:52:15;28.30;51.30
6903;DHT22;20232;49.408;8.702;2022-07-15T09:54:43;27.80;51.30
6903;DHT22;20232;49.408;8.702;2022-07-15T09:57:12;27.50;51.80
6903;DHT22;20232;49.408;8.702;2022-07-15T09:59:40;27.50;52.90
6903;DHT22;20232;49.408;8.702;2022-07-15T10:02:06;28.10;51.70
6903;DHT22;20232;49.408;8.702;2022-07-15T10:04:32;28.90;49.80
6903;DHT22;20232;49.408;8.702;2022-07-15T10:06:59;29.80;49.20
6903;DHT22;20232;49.408;8.702;2022-07-15T10:09:30;30.30;48.50
6903;DHT22;20232;49.408;8.702;2022-07-15T10:12:18;29.60;49.10
6903;DHT22;20232;49.408;8.702;2022-07-15T10:28:55;30.10;48.40
6903;DHT22;20232;49.408;8.702;2022-07-15T10:31:25;30.10;48.80
6903;DHT22;20232;49.408;8.702;2022-07-15T10:39:14;30.80;47.20
6903;DHT22;20232;49.408;8.702;2022-07-15T10:41:58;30.80;47.40
6903;DHT22;20232;49.408;8.702;2022-07-15T10:44:32;30.80;47.50
6903;DHT22;20232;49.408;8.702;2022-07-15T10:49:46;30.20;47.90
6903;DHT22;20232;49.408;8.702;2022-07-15T10:52:14;30.20;47.40
6903;DHT22;20232;49.408;8.702;2022-07-15T10:54:43;30.10;47.70
6903;DHT22;20232;49.408;8.702;2022-07-15T10:57:10;30.40;47.50
6903;DHT22;20232;49.408;8.702;2022-07-15T10:59:38;30.60;46.00
6903;DHT22;20232;49.408;8.702;2022-07-15T11:04:32;30.90;46.00
6903;DHT22;20232;49.408;8.702;2022-07-15T11:15:14;32.20;43.40
6903;DHT22;20232;49.408;8.702;2022-07-15T11:17:46;32.00;43.80
6903;DHT22;20232;49.408;8.702;2022-07-15T11:20:27;32.10;43.90
6903;DHT22;20232;49.408;8.702;2022-07-15T11:22:55;32.20;43.20
6903;DHT22;20232;49.408;8.702;2022-07-15T11:25:29;32.50;42.50
6903;DHT22;20232;49.408;8.702;2022-07-15T11:27:59;33.40;41.80
6903;DHT22;20232;49.408;8.702;2022-07-15T11:30:30;34.20;40.80
6903;DHT22;20232;49.408;8.702;2022-07-15T11:33:00;33.20;42.00
6903;DHT22;20232;49.408;8.702;2022-07-15T11:35:27;33.10;42.60
6903;DHT22;20232;49.408;8.702;2022-07-15T11:37:57;33.60;41.30
6903;DHT22;20232;49.408;8.702;2022-07-15T11:40:24;34.00;40.70
6903;DHT22;20232;49.408;8.702;2022-07-15T11:43:17;34.40;41.40
6903;DHT22;20232;49.408;8.702;2022-07-15T11:46:01;35.20;40.60
6903;DHT22;20232;49.408;8.702;2022-07-15T11:48:36;34.80;40.10
6903;DHT22;20232;49.408;8.702;2022-07-15T11:51:02;34.30;40.10
6903;DHT22;20232;49.408;8.702;2022-07-15T11:53:35;34.80;40.00
6903;DHT22;20232;49.408;8.702;2022-07-15T11:56:01;34.80;40.60
6903;DHT22;20232;49.408;8.702;2022-07-15T11:58:45;34.90;40.40
6903;DHT22;20232;49.408;8.702;2022-07-15T12:01:16;34.50;40.10
6903;DHT22;20232;49.408;8.702;2022-07-15T12:03:47;34.40;40.20
6903;DHT22;20232;49.408;8.702;2022-07-15T12:06:16;35.10;39.90
6903;DHT22;20232;49.408;8.702;2022-07-15T12:08:52;34.60;39.80
6903;DHT22;20232;49.408;8.702;2022-07-15T12:11:27;34.30;39.90
6903;DHT22;20232;49.408;8.702;2022-07-15T12:14:03;34.50;39.40
6903;DHT22;20232;49.408;8.702;2022-07-15T12:21:38;34.10;39.00
6903;DHT22;20232;49.408;8.702;2022-07-15T12:26:34;34.20;38.50
6903;DHT22;20232;49.408;8.702;2022-07-15T12:29:02;34.10;39.90
6903;DHT22;20232;49.408;8.702;2022-07-15T12:31:30;34.80;39.80
6903;DHT22;20232;49.408;8.702;2022-07-15T12:33:56;34.90;38.90
6903;DHT22;20232;49.408;8.702;2022-07-15T12:36:24;35.40;39.20
6903;DHT22;20232;49.408;8.702;2022-07-15T12:41:28;37.50;36.30
6903;DHT22;20232;49.408;8.702;2022-07-15T12:43:59;36.90;35.50
6903;DHT22;20232;49.408;8.702;2022-07-15T12:46:50;37.20;35.70
6903;DHT22;20232;49.408;8.702;2022-07-15T12:49:54;37.70;35.30
6903;DHT22;20232;49.408;8.702;2022-07-15T12:52:35;36.40;37.50
6903;DHT22;20232;49.408;8.702;2022-07-15T12:55:21;37.50;35.30
6903;DHT22;20232;49.408;8.702;2022-07-15T12:57:47;36.50;35.70
6903;DHT22;20232;49.408;8.702;2022-07-15T13:00:18;36.30;36.80
6903;DHT22;20232;49.408;8.702;2022-07-15T13:03:07;37.30;35.90
6903;DHT22;20232;49.408;8.702;2022-07-15T13:05:47;37.00;36.40
6903;DHT22;20232;49.408;8.702;2022-07-15T13:08:21;37.80;36.30
6903;DHT22;20232;49.408;8.702;2022-07-15T13:10:49;38.70;35.40
6903;DHT22;20232;49.408;8.702;2022-07-15T13:13:17;39.60;33.70
6903;DHT22;20232;49.408;8.702;2022-07-15T13:15:44;39.10;33.40
6903;DHT22;20232;49.408;8.702;2022-07-15T13:18:10;38.60;34.20
6903;DHT22;20232;49.408;8.702;2022-07-15T13:20:36;37.90;35.10
6903;DHT22;20232;49.408;8.702;2022-07-15T13:23:02;37.80;35.40
6903;DHT22;20232;49.408;8.702;2022-07-15T13:25:29;37.30;35.50
6903;DHT22;20232;49.408;8.702;2022-07-15T13:27:55;37.20;36.50
6903;DHT22;20232;49.408;8.702;2022-07-15T13:30:21;36.80;37.20
6903;DHT22;20232;49.408;8.702;2022-07-15T13:32:50;36.50;37.00
6903;DHT22;20232;49.408;8.702;2022-07-15T13:35:16;36.60;36.60
6903;DHT22;20232;49.408;8.702;2022-07-15T13:37:42;37.10;36.70
6903;DHT22;20232;49.408;8.702;2022-07-15T13:40:10;36.90;36.20
6903;DHT22;20232;49.408;8.702;2022-07-15T13:42:36;36.80;37.00
6903;DHT22;20232;49.408;8.702;2022-07-15T13:45:02;37.70;36.20
6903;DHT22;20232;49.408;8.702;2022-07-15T13:47:28;38.50;35.80
6903;DHT22;20232;49.408;8.702;2022-07-15T13:49:56;38.80;34.80
6903;DHT22;20232;49.408;8.702;2022-07-15T13:52:47;39.00;34.80
6903;DHT22;20232;49.408;8.702;2022-07-15T13:55:14;39.50;34.20
6903;DHT22;20232;49.408;8.702;2022-07-15T13:57:41;38.30;34.70
6903;DHT22;20232;49.408;8.702;2022-07-15T14:00:10;38.20;34.90
6903;DHT22;20232;49.408;8.702;2022-07-15T14:02:37;37.90;35.10
6903;DHT22;20232;49.408;8.702;2022-07-15T14:05:03;38.30;34.90
6903;DHT22;20232;49.408;8.702;2022-07-15T14:07:29;38.10;33.90
6903;DHT22;20232;49.408;8.702;2022-07-15T14:09:55;38.50;34.50
6903;DHT22;20232;49.408;8.702;2022-07-15T14:12:23;38.70;34.20
6903;DHT22;20232;49.408;8.702;2022-07-15T14:14:49;38.30;35.60
6903;DHT22;20232;49.408;8.702;2022-07-15T14:17:15;38.60;34.90
6903;DHT22;20232;49.408;8.702;2022-07-15T14:19:40;39.60;33.70
6903;DHT22;20232;49.408;8.702;2022-07-15T14:22:06;40.70;33.00
6903;DHT22;20232;49.408;8.702;2022-07-15T14:24:32;40.20;32.80
6903;DHT22;20232;49.408;8.702;2022-07-15T14:26:57;39.30;32.50
6903;DHT22;20232;49.408;8.702;2022-07-15T14:29:23;39.20;33.30
6903;DHT22;20232;49.408;8.702;2022-07-15T14:31:49;39.40;34.40
6903;DHT22;20232;49.408;8.702;2022-07-15T14:34:14;39.30;33.70
6903;DHT22;20232;49.408;8.702;2022-07-15T14:36:40;38.40;33.30
6903;DHT22;20232;49.408;8.702;2022-07-15T14:39:06;37.90;34.20
6903;DHT22;20232;49.408;8.702;2022-07-15T14:41:32;38.00;34.70
6903;DHT22;20232;49.408;8.702;2022-07-15T14:43:58;38.90;34.00
6903;DHT22;20232;49.408;8.702;2022-07-15T14:46:25;38.20;34.30
6903;DHT22;20232;49.408;8.702;2022-07-15T14:48:50;38.30;33.80
6903;DHT22;20232;49.408;8.702;2022-07-15T14:51:16;39.00;33.80
6903;DHT22;20232;49.408;8.702;2022-07-15T14:53:42;38.80;33.90
6903;DHT22;20232;49.408;8.702;2022-07-15T14:56:08;38.70;34.60
6903;DHT22;20232;49.408;8.702;2022-07-15T14:58:33;40.10;32.50
6903;DHT22;20232;49.408;8.702;2022-07-15T15:00:59;40.80;32.30
6903;DHT22;20232;49.408;8.702;2022-07-15T15:03:24;40.60;31.80
6903;DHT22;20232;49.408;8.702;2022-07-15T15:05:50;40.20;32.40
6903;DHT22;20232;49.408;8.702;2022-07-15T15:08:16;39.80;34.00
6903;DHT22;20232;49.408;8.702;2022-07-15T15:10:42;41.40;31.40
6903;DHT22;20232;49.408;8.702;2022-07-15T15:13:08;41.10;31.00
6903;DHT22;20232;49.408;8.702;2022-07-15T15:15:34;40.90;31.70
6903;DHT22;20232;49.408;8.702;2022-07-15T15:18:00;40.70;31.60
6903;DHT22;20232;49.408;8.702;2022-07-15T15:20:26;39.00;33.00
6903;DHT22;20232;49.408;8.702;2022-07-15T15:22:52;39.60;32.10
6903;DHT22;20232;49.408;8.702;2022-07-15T15:25:18;38.70;32.40
6903;DHT22;20232;49.408;8.702;2022-07-15T15:28:04;37.80;34.60
6903;DHT22;20232;49.408;8.702;2022-07-15T15:30:30;39.30;32.90
6903;DHT22;20232;49.408;8.702;2022-07-15T15:32:56;39.40;33.10
6903;DHT22;20232;49.408;8.702;2022-07-15T15:35:21;39.20;33.90
6903;DHT22;20232;49.408;8.702;2022-07-15T15:37:50;40.50;32.90
6903;DHT22;20232;49.408;8.702;2022-07-15T15:40:16;40.00;32.60
6903;DHT22;20232;49.408;8.702;2022-07-15T15:42:42;39.70;32.40
6903;DHT22;20232;49.408;8.702;2022-07-15T15:45:08;40.70;32.00
6903;DHT22;20232;49.408;8.702;2022-07-15T15:47:34;40.60;31.10
6903;DHT22;20232;49.408;8.702;2022-07-15T15:49:59;40.10;31.60
6903;DHT22;20232;49.408;8.702;2022-07-15T15:52:25;39.60;31.60
6903;DHT22;20232;49.408;8.702;2022-07-15T15:54:54;38.70;32.70
6903;DHT22;20232;49.408;8.702;2022-07-15T15:57:19;38.00;33.90
6903;DHT22;20232;49.408;8.702;2022-07-15T15:59:45;37.30;33.60
6903;DHT22;20232;49.408;8.702;2022-07-15T16:02:11;37.90;33.20
6903;DHT22;20232;49.408;8.702;2022-07-15T16:04:36;37.10;33.30
6903;DHT22;20232;49.408;8.702;2022-07-15T16:07:03;36.10;34.60
6903;DHT22;20232;49.408;8.702;2022-07-15T16:09:29;35.30;35.90
6903;DHT22;20232;49.408;8.702;2022-07-15T16:11:55;34.10;36.30
6903;DHT22;20232;49.408;8.702;2022-07-15T16:14:20;36.20;35.90
6903;DHT22;20232;49.408;8.702;2022-07-15T16:16:46;36.70;34.50
6903;DHT22;20232;49.408;8.702;2022-07-15T16:19:11;36.90;34.30
6903;DHT22;20232;49.408;8.702;2022-07-15T16:21:37;36.40;34.60
6903;DHT22;20232;49.408;8.702;2022-07-15T16:24:21;36.00;34.80
6903;DHT22;20232;49.408;8.702;2022-07-15T16:26:47;35.00;36.20
6903;DHT22;20232;49.408;8.702;2022-07-15T16:29:13;34.70;37.00
6903;DHT22;20232;49.408;8.702;2022-07-15T16:31:38;34.60;36.40
6903;DHT22;20232;49.408;8.702;2022-07-15T16:34:04;34.00;36.20
6903;DHT22;20232;49.408;8.702;2022-07-15T16:36:30;32.40;36.80
6903;DHT22;20232;49.408;8.702;2022-07-15T16:38:55;31.10;39.80
6903;DHT22;20232;49.408;8.702;2022-07-15T16:41:21;30.00;39.80
6903;DHT22;20232;49.408;8.702;2022-07-15T16:43:47;29.00;42.50
6903;DHT22;20232;49.408;8.702;2022-07-15T16:46:12;28.10;43.60
6903;DHT22;20232;49.408;8.702;2022-07-15T16:48:38;27.80;43.50
6903;DHT22;20232;49.408;8.702;2022-07-15T16:51:03;27.50;44.00
6903;DHT22;20232;49.408;8.702;2022-07-15T16:53:29;27.30;44.40
6903;DHT22;20232;49.408;8.702;2022-07-15T16:55:55;27.30;45.00
6903;DHT22;20232;49.408;8.702;2022-07-15T16:58:20;27.00;45.10
6903;DHT22;20232;49.408;8.702;2022-07-15T17:00:46;27.00;46.40
6903;DHT22;20232;49.408;8.702;2022-07-15T17:03:12;27.00;46.00
6903;DHT22;20232;49.408;8.702;2022-07-15T17:05:37;26.90;46.10
6903;DHT22;20232;49.408;8.702;2022-07-15T17:08:04;26.80;45.50
6903;DHT22;20232;49.408;8.702;2022-07-15T17:10:30;26.70;46.30
6903;DHT22;20232;49.408;8.702;2022-07-15T17:12:56;26.50;46.40
6903;DHT22;20232;49.408;8.702;2022-07-15T17:15:21;26.40;46.60
6903;DHT22;20232;49.408;8.702;2022-07-15T17:17:47;26.30;47.20
6903;DHT22;20232;49.408;8.702;2022-07-15T17:20:14;26.40;48.10
6903;DHT22;20232;49.408;8.702;2022-07-15T17:22:41;26.40;47.70
6903;DHT22;20232;49.408;8.702;2022-07-15T17:25:07;26.60;47.20
6903;DHT22;20232;49.408;8.702;2022-07-15T17:27:32;26.60;48.20
6903;DHT22;20232;49.408;8.702;2022-07-15T17:29:58;26.70;47.30
6903;DHT22;20232;49.408;8.702;2022-07-15T17:32:24;26.50;47.60
6903;DHT22;20232;49.408;8.702;2022-07-15T17:34:49;26.50;46.40
6903;DHT22;20232;49.408;8.702;2022-07-15T17:37:15;26.40;47.00
6903;DHT22;20232;49.408;8.702;2022-07-15T17:39:40;26.40;46.80
6903;DHT22;20232;49.408;8.702;2022-07-15T17:42:06;26.30;47.20
6903;DHT22;20232;49.408;8.702;2022-07-15T17:44:32;26.30;46.90
6903;DHT22;20232;49.408;8.702;2022-07-15T17:46:57;26.00;47.20
6903;DHT22;20232;49.408;8.702;2022-07-15T17:49:23;25.70;47.80
6903;DHT22;20232;49.408;8.702;2022-07-15T17:51:49;25.50;47.80
6903;DHT22;20232;49.408;8.702;2022-07-15T17:54:15;25.30;48.40
6903;DHT22;20232;49.408;8.702;2022-07-15T17:56:41;25.20;47.90
6903;DHT22;20232;49.408;8.702;2022-07-15T17:59:06;25.20;48.30
6903;DHT22;20232;49.408;8.702;2022-07-15T18:01:32;25.20;49.00
6903;DHT22;20232;49.408;8.702;2022-07-15T18:03:57;25.10;49.00
6903;DHT22;20232;49.408;8.702;2022-07-15T18:06:23;25.00;48.70
6903;DHT22;20232;49.408;8.702;2022-07-15T18:08:48;24.80;49.20
6903;DHT22;20232;49.408;8.702;2022-07-15T18:11:15;24.90;49.80
6903;DHT22;20232;49.408;8.702;2022-07-15T18:13:41;24.90;48.80
6903;DHT22;20232;49.408;8.702;2022-07-15T18:16:06;24.80;48.90
6903;DHT22;20232;49.408;8.702;2022-07-15T18:18:32;24.60;49.10
6903;DHT22;20232;49.408;8.702;2022-07-15T18:20:58;24.50;49.40
6903;DHT22;20232;49.408;8.702;2022-07-15T18:23:24;24.50;50.30
6903;DHT22;20232;49.408;8.702;2022-07-15T18:25:49;24.50;50.50
6903;DHT22;20232;49.408;8.702;2022-07-15T18:28:15;24.40;50.00
6903;DHT22;20232;49.408;8.702;2022-07-15T18:30:40;24.40;50.50
6903;DHT22;20232;49.408;8.702;2022-07-15T18:33:06;24.40;50.60
6903;DHT22;20232;49.408;8.702;2022-07-15T18:35:32;24.40;49.20
6903;DHT22;20232;49.408;8.702;2022-07-15T18:37:57;24.30;49.60
6903;DHT22;20232;49.408;8.702;2022-07-15T18:40:23;24.20;49.90
6903;DHT22;20232;49.408;8.702;2022-07-15T18:42:48;24.10;49.80
6903;DHT22;20232;49.408;8.702;2022-07-15T18:45:14;24.00;49.70
6903;DHT22;20232;49.408;8.702;2022-07-15T18:47:40;23.90;49.80
6903;DHT22;20232;49.408;8.702;2022-07-15T18:50:06;23.80;50.10
6903;DHT22;20232;49.408;8.702;2022-07-15T18:52:32;23.70;50.30
6903;DHT22;20232;49.408;8.702;2022-07-15T18:54:57;23.60;50.90
6903;DHT22;20232;49.408;8.702;2022-07-15T18:57:23;23.60;50.30
6903;DHT22;20232;49.408;8.702;2022-07-15T18:59:49;23.50;50.50
6903;DHT22;20232;49.408;8.702;2022-07-15T19:02:14;23.50;51.70
6903;DHT22;20232;49.408;8.702;2022-07-15T19:04:40;23.40;52.40
6903;DHT22;20232;49.408;8.702;2022-07-15T19:07:06;23.30;52.50
6903;DHT22;20232;49.408;8.702;2022-07-15T19:09:31;23.30;52.80
6903;DHT22;20232;49.408;8.702;2022-07-15T19:11:57;23.10;52.90
6903;DHT22;20232;49.408;8.702;2022-07-15T19:14:22;23.00;53.40
6903;DHT22;20232;49.408;8.702;2022-07-15T19:16:48;23.00;53.80
6903;DHT22;20232;49.408;8.702;2022-07-15T19:19:14;22.90;54.00
6903;DHT22;20232;49.408;8.702;2022-07-15T19:21:39;22.80;53.30
6903;DHT22;20232;49.408;8.702;2022-07-15T19:24:09;22.70;53.20
6903;DHT22;20232;49.408;8.702;2022-07-15T19:26:37;22.60;53.90
6903;DHT22;20232;49.408;8.702;2022-07-15T19:29:03;22.50;54.50
6903;DHT22;20232;49.408;8.702;2022-07-15T19:31:29;22.40;53.80
6903;DHT22;20232;49.408;8.702;2022-07-15T19:33:54;22.30;52.90
6903;DHT22;20232;49.408;8.702;2022-07-15T19:36:20;22.30;53.50
6903;DHT22;20232;49.408;8.702;2022-07-15T19:38:45;22.30;53.80
6903;DHT22;20232;49.408;8.702;2022-07-15T19:41:13;22.20;54.60
6903;DHT22;20232;49.408;8.702;2022-07-15T19:43:38;22.10;55.30
6903;DHT22;20232;49.408;8.702;2022-07-15T19:46:04;22.10;55.80
6903;DHT22;20232;49.408;8.702;2022-07-15T19:48:30;22.10;56.10
6903;DHT22;20232;49.408;8.702;2022-07-15T19:50:55;22.00;56.20
6903;DHT22;20232;49.408;8.702;2022-07-15T19:53:21;21.80;57.30
6903;DHT22;20232;49.408;8.702;2022-07-15T19:55:47;21.50;56.70
6903;DHT22;20232;49.408;8.702;2022-07-15T19:58:12;21.40;55.90
6903;DHT22;20232;49.408;8.702;2022-07-15T20:00:38;21.20;57.30
6903;DHT22;20232;49.408;8.702;2022-07-15T20:03:05;21.10;57.50
6903;DHT22;20232;49.408;8.702;2022-07-15T20:05:33;21.00;56.80
6903;DHT22;20232;49.408;8.702;2022-07-15T20:07:59;20.90;56.60
6903;DHT22;20232;49.408;8.702;2022-07-15T20:10:25;20.90;56.40
6903;DHT22;20232;49.408;8.702;2022-07-15T20:12:52;20.90;57.20
6903;DHT22;20232;49.408;8.702;2022-07-15T20:15:17;21.00;55.40
6903;DHT22;20232;49.408;8.702;2022-07-15T20:17:46;21.10;54.50
6903;DHT22;20232;49.408;8.702;2022-07-15T20:20:12;21.10;54.00
6903;DHT22;20232;49.408;8.702;2022-07-15T20:22:41;21.10;54.90
6903;DHT22;20232;49.408;8.702;2022-07-15T20:25:06;21.30;53.70
6903;DHT22;20232;49.408;8.702;2022-07-15T20:27:32;21.20;53.90
6903;DHT22;20232;49.408;8.702;2022-07-15T20:29:58;21.20;53.40
6903;DHT22;20232;49.408;8.702;2022-07-15T20:32:24;21.10;55.70